Terminal Aerodrome Forecast
Issued by NWS Central Illinois

Home | Current Version | Previous Version | Text Only | Print | Product List | Glossary On
Versions: 1 2 3 4 5 6 7 8 9 10 11 12 13 14 15 16 17 18 19 20 21
837
FTUS43 KILX 242322
TAFPIA
TAF
KPIA 242322Z 2500/2524 30012KT P6SM SKC
     FM250200 28007KT P6SM FEW250
     FM251600 29012KT P6SM FEW250
     FM251800 29014G22KT P6SM SCT045=

USA.gov is the U.S. government's official web portal to all federal, state and local government web resources and services.